createdAt,value
2018-05-23T00:00:05.483Z,45
2018-05-23T00:15:05.156Z,43
2018-05-23T00:30:04.652Z,42
2018-05-23T00:45:05.521Z,43
2018-05-23T01:00:05.224Z,43
2018-05-23T01:15:04.660Z,43
2018-05-23T01:30:04.632Z,43
2018-05-23T01:45:05.293Z,42
2018-05-23T02:00:05.232Z,44
2018-05-23T02:15:04.986Z,43
2018-05-23T02:30:05.325Z,42
2018-05-23T02:45:05.015Z,43
2018-05-23T03:00:04.967Z,42
2018-05-23T03:15:05.099Z,43
2018-05-23T03:30:05.823Z,42
2018-05-23T03:45:04.965Z,41
2018-05-23T04:00:04.667Z,43
2018-05-23T04:15:05.233Z,44
2018-05-23T04:30:04.984Z,48
2018-05-23T04:45:04.933Z,47
2018-05-23T05:00:04.837Z,46
2018-05-23T05:15:04.366Z,47
2018-05-23T05:30:04.740Z,47
2018-05-23T05:45:04.620Z,47
2018-05-23T06:00:05.164Z,46
2018-05-23T06:15:04.601Z,46
2018-05-23T06:30:04.528Z,48
2018-05-23T06:45:04.940Z,49
2018-05-23T07:00:04.903Z,48
2018-05-23T07:15:04.520Z,47
2018-05-23T07:30:04.577Z,48
2018-05-23T07:45:04.972Z,49
2018-05-23T08:00:04.534Z,48
2018-05-23T08:15:04.590Z,46
2018-05-23T08:30:04.367Z,46
2018-05-23T08:45:05.212Z,45
2018-05-23T09:00:05.175Z,47
2018-05-23T09:15:05.160Z,47
2018-05-23T09:30:04.921Z,46
2018-05-23T09:45:05.033Z,45
2018-05-23T10:00:04.493Z,46
2018-05-23T10:15:04.963Z,48
2018-05-23T10:30:04.699Z,46
2018-05-23T10:45:05.405Z,48
2018-05-23T11:00:04.933Z,47
2018-05-23T11:15:04.900Z,47
2018-05-23T11:30:04.804Z,48
2018-05-23T11:45:04.750Z,47
2018-05-23T12:00:04.813Z,49
2018-05-23T12:15:05.253Z,50
2018-05-23T12:30:04.420Z,50
2018-05-23T12:45:04.446Z,50
2018-05-23T13:00:05.438Z,48
2018-05-23T13:15:04.380Z,48
2018-05-23T13:30:04.505Z,49
2018-05-23T13:45:04.989Z,52
2018-05-23T14:00:04.294Z,50
2018-05-23T14:15:04.804Z,49
2018-05-23T14:30:04.400Z,49
2018-05-23T14:45:05.306Z,48
2018-05-23T15:00:05.201Z,51
2018-05-23T15:15:05.418Z,50
2018-05-23T15:30:04.951Z,52
2018-05-23T15:45:04.633Z,51
2018-05-23T16:00:04.989Z,51
2018-05-23T16:15:05.428Z,49
2018-05-23T16:30:04.884Z,54
2018-05-23T16:45:04.666Z,56
2018-05-23T17:00:05.757Z,53
2018-05-23T17:15:04.659Z,52
2018-05-23T17:30:04.554Z,50
2018-05-23T17:45:05.304Z,48
2018-05-23T18:00:05.348Z,50
2018-05-23T18:15:05.426Z,49
2018-05-23T18:30:04.905Z,48
2018-05-23T18:45:05.072Z,48
2018-05-23T19:00:05.479Z,47
2018-05-23T19:15:05.064Z,49
2018-05-23T19:30:05.167Z,47
2018-05-23T19:45:05.373Z,49
2018-05-23T20:00:04.758Z,48
2018-05-23T20:15:04.386Z,49
2018-05-23T20:30:04.996Z,47
2018-05-23T20:45:05.142Z,46
2018-05-23T21:00:04.593Z,47
2018-05-23T21:15:05.140Z,47
2018-05-23T21:30:04.929Z,45
2018-05-23T21:45:05.017Z,47
2018-05-23T22:00:04.639Z,44
2018-05-23T22:15:05.489Z,44
2018-05-23T22:30:05.301Z,44
2018-05-23T22:45:04.478Z,44
2018-05-23T23:00:05.074Z,44
2018-05-23T23:15:04.954Z,43
2018-05-23T23:30:04.932Z,42
2018-05-23T23:45:05.133Z,43
